createdAt,value
2022-10-19T00:01:14.767Z,47.25
2022-10-19T00:03:41.416Z,47.00
2022-10-19T00:06:14.524Z,47.21
2022-10-19T00:08:43.669Z,47.11
2022-10-19T00:11:13.891Z,46.87
2022-10-19T00:13:40.791Z,47.15
2022-10-19T00:16:12.766Z,47.13
2022-10-19T00:18:40.857Z,46.95
2022-10-19T00:21:07.996Z,46.89
2022-10-19T00:23:34.479Z,46.94
2022-10-19T00:26:01.005Z,47.16
2022-10-19T00:28:29.599Z,47.05
2022-10-19T00:30:56.519Z,47.10
2022-10-19T00:33:23.079Z,46.93
2022-10-19T00:35:50.556Z,46.85
2022-10-19T00:38:18.120Z,46.97
2022-10-19T00:40:45.141Z,46.86
2022-10-19T00:43:22.338Z,47.01
2022-10-19T00:45:49.096Z,46.74
2022-10-19T00:48:25.741Z,47.01
2022-10-19T00:50:52.781Z,46.89
2022-10-19T00:53:21.705Z,47.11
2022-10-19T00:55:48.163Z,46.71
2022-10-19T00:58:16.960Z,46.86
2022-10-19T01:00:44.793Z,46.86
2022-10-19T01:03:15.110Z,46.88
2022-10-19T01:05:43.827Z,46.73
2022-10-19T01:08:11.308Z,47.03
2022-10-19T01:11:16.682Z,46.97
2022-10-19T01:13:55.159Z,46.88
2022-10-19T01:16:43.447Z,46.80
2022-10-19T01:19:30.953Z,46.75
2022-10-19T01:22:10.616Z,46.72
2022-10-19T01:25:05.325Z,46.69
2022-10-19T01:27:35.676Z,46.82
2022-10-19T01:30:15.787Z,46.66
2022-10-19T01:33:10.439Z,46.61
2022-10-19T01:35:42.277Z,46.72
2022-10-19T01:38:23.070Z,46.75
2022-10-19T01:41:08.390Z,46.73
2022-10-19T01:44:05.613Z,46.74
2022-10-19T01:46:42.474Z,46.85
2022-10-19T01:49:14.534Z,46.76
2022-10-19T01:51:44.183Z,46.71
2022-10-19T01:54:17.087Z,46.74
2022-10-19T01:56:44.300Z,46.76
2022-10-19T01:59:13.347Z,46.61
2022-10-19T02:01:42.118Z,46.72
2022-10-19T02:04:09.405Z,46.79
2022-10-19T02:06:36.452Z,46.86
2022-10-19T02:09:02.968Z,46.66
2022-10-19T02:11:31.309Z,46.66
2022-10-19T02:14:05.736Z,46.66
2022-10-19T02:16:38.655Z,46.70
2022-10-19T02:19:05.113Z,46.43
2022-10-19T02:21:32.378Z,46.23
2022-10-19T02:23:58.814Z,46.31
2022-10-19T02:26:27.592Z,46.21
2022-10-19T02:28:56.131Z,46.27
2022-10-19T02:31:24.513Z,46.13
2022-10-19T02:33:51.070Z,46.14
2022-10-19T02:36:18.986Z,45.98
2022-10-19T02:38:45.441Z,45.93
2022-10-19T02:41:23.124Z,45.82
2022-10-19T02:43:53.376Z,44.92
2022-10-19T02:46:25.894Z,46.08
2022-10-19T02:48:53.052Z,45.83
2022-10-19T02:51:40.859Z,45.58
2022-10-19T02:54:09.568Z,45.29
2022-10-19T02:56:36.340Z,45.54
2022-10-19T02:59:03.211Z,45.42
2022-10-19T03:01:30.755Z,45.49
2022-10-19T03:03:58.781Z,45.64
2022-10-19T03:06:25.284Z,45.44
2022-10-19T03:08:51.747Z,45.20
2022-10-19T03:11:20.334Z,45.47
2022-10-19T03:16:19.800Z,45.68
2022-10-19T03:18:48.504Z,45.82
2022-10-19T03:21:14.960Z,45.77
2022-10-19T03:23:43.527Z,45.88
2022-10-19T03:26:12.535Z,45.91
2022-10-19T03:28:39.084Z,45.87
2022-10-19T03:31:06.960Z,45.90
2022-10-19T03:33:33.411Z,45.83
2022-10-19T03:36:22.544Z,45.80
2022-10-19T03:38:56.167Z,45.86
2022-10-19T03:41:23.492Z,45.82
2022-10-19T03:43:50.071Z,45.89
2022-10-19T03:46:20.579Z,45.92
2022-10-19T03:48:47.050Z,45.97
2022-10-19T03:51:15.382Z,46.01
2022-10-19T03:53:42.322Z,45.59
2022-10-19T03:56:17.899Z,46.04
2022-10-19T03:58:47.621Z,45.84
2022-10-19T04:01:36.411Z,45.83
2022-10-19T04:04:05.112Z,45.90
2022-10-19T04:06:36.941Z,45.72
2022-10-19T04:09:04.199Z,45.90
2022-10-19T04:11:31.228Z,45.81
2022-10-19T04:13:59.949Z,45.87
2022-10-19T04:16:30.314Z,45.68
2022-10-19T04:18:57.298Z,45.50
2022-10-19T04:21:24.632Z,45.34
2022-10-19T04:23:58.554Z,45.44
2022-10-19T04:26:25.016Z,45.46
2022-10-19T04:28:51.647Z,45.46
2022-10-19T04:31:18.149Z,45.64
2022-10-19T04:36:14.423Z,45.57
2022-10-19T04:38:40.917Z,45.36
2022-10-19T04:41:11.271Z,45.45
2022-10-19T04:43:38.054Z,45.64
2022-10-19T04:46:19.563Z,45.41
2022-10-19T04:48:50.574Z,45.64
2022-10-19T04:51:22.124Z,45.87
2022-10-19T04:53:51.931Z,45.84
2022-10-19T04:56:21.352Z,45.70
2022-10-19T04:58:48.285Z,45.75
2022-10-19T05:01:20.266Z,45.70
2022-10-19T05:03:47.492Z,45.60
2022-10-19T05:06:20.886Z,45.45
2022-10-19T05:08:50.615Z,45.57
2022-10-19T05:11:18.984Z,45.55
2022-10-19T05:13:45.615Z,45.39
2022-10-19T05:16:13.776Z,45.40
2022-10-19T05:18:41.294Z,45.42
2022-10-19T05:21:10.258Z,45.36
2022-10-19T05:23:38.426Z,45.35
2022-10-19T05:26:17.300Z,45.31
2022-10-19T05:28:47.959Z,45.13
2022-10-19T05:31:16.089Z,45.20
2022-10-19T05:33:43.008Z,45.38
2022-10-19T05:36:26.462Z,45.01
2022-10-19T05:38:54.302Z,45.25
2022-10-19T05:41:21.023Z,44.96
2022-10-19T05:43:47.652Z,45.21
2022-10-19T05:46:19.167Z,44.94
2022-10-19T05:48:46.059Z,45.19
2022-10-19T05:51:19.169Z,45.03
2022-10-19T05:53:45.661Z,44.95
2022-10-19T05:56:17.720Z,45.15
2022-10-19T05:58:46.431Z,44.98
2022-10-19T06:01:14.048Z,45.40
2022-10-19T06:03:42.106Z,45.29
2022-10-19T06:06:10.403Z,45.10
2022-10-19T06:08:37.731Z,44.98
2022-10-19T06:11:10.059Z,45.23
2022-10-19T06:13:37.158Z,45.12
2022-10-19T06:16:05.471Z,44.87
2022-10-19T06:18:32.339Z,45.16
2022-10-19T06:21:23.664Z,45.02
2022-10-19T06:23:57.098Z,44.96
2022-10-19T06:26:23.803Z,44.83
2022-10-19T06:28:50.551Z,44.86
2022-10-19T06:31:18.490Z,45.05
2022-10-19T06:33:47.253Z,45.06
2022-10-19T06:36:23.953Z,45.00
2022-10-19T06:38:54.556Z,45.15
2022-10-19T06:41:21.412Z,44.74
2022-10-19T06:43:55.342Z,44.93
2022-10-19T06:46:23.442Z,44.59
2022-10-19T06:48:54.161Z,44.76
2022-10-19T06:51:21.291Z,44.59
2022-10-19T06:53:49.714Z,44.49
2022-10-19T06:56:23.525Z,44.55
2022-10-19T06:58:50.030Z,44.62
2022-10-19T07:01:16.691Z,44.76
2022-10-19T07:03:43.674Z,44.74
2022-10-19T07:06:11.450Z,45.00
2022-10-19T07:08:41.773Z,45.13
2022-10-19T07:11:12.570Z,45.13
2022-10-19T07:13:39.411Z,45.31
2022-10-19T07:16:17.651Z,45.25
2022-10-19T07:19:01.889Z,45.15
2022-10-19T07:21:32.735Z,45.28
2022-10-19T07:24:00.277Z,45.28
2022-10-19T07:26:30.727Z,45.44
2022-10-19T07:28:57.822Z,45.26
2022-10-19T07:31:24.727Z,45.29
2022-10-19T07:34:01.529Z,45.37
2022-10-19T07:36:33.080Z,45.37
2022-10-19T07:39:02.608Z,45.20
2022-10-19T07:41:29.435Z,45.23
2022-10-19T07:43:58.095Z,44.95
2022-10-19T07:46:26.618Z,44.83
2022-10-19T07:48:55.739Z,44.70
2022-10-19T07:51:22.812Z,44.78
2022-10-19T07:53:49.772Z,44.43
2022-10-19T07:56:18.878Z,44.83
2022-10-19T07:58:51.229Z,44.65
2022-10-19T08:01:20.736Z,44.75
2022-10-19T08:06:35.123Z,44.25
2022-10-19T08:09:02.861Z,44.61
2022-10-19T08:11:31.032Z,44.53
2022-10-19T08:14:03.063Z,44.58
2022-10-19T08:16:33.293Z,44.43
2022-10-19T08:19:04.837Z,44.56
2022-10-19T08:21:31.371Z,44.57
2022-10-19T08:23:59.648Z,44.68
2022-10-19T08:26:30.415Z,44.89
2022-10-19T08:29:01.575Z,44.68
2022-10-19T08:31:29.482Z,44.93
2022-10-19T08:33:56.049Z,44.82
2022-10-19T08:36:22.841Z,45.02
2022-10-19T08:38:49.374Z,44.88
2022-10-19T08:41:27.749Z,45.05
2022-10-19T08:44:15.252Z,44.89
2022-10-19T08:47:14.782Z,45.05
2022-10-19T08:49:43.969Z,44.88
2022-10-19T08:52:36.232Z,44.83
2022-10-19T08:55:14.006Z,44.90
2022-10-19T08:58:05.082Z,45.02
2022-10-19T09:00:51.581Z,45.08
2022-10-19T09:03:54.313Z,44.90
2022-10-19T09:06:35.842Z,45.02
2022-10-19T09:09:06.179Z,44.90
2022-10-19T09:11:38.608Z,45.18
2022-10-19T09:14:07.676Z,44.85
2022-10-19T09:16:35.545Z,44.82
2022-10-19T09:19:03.500Z,45.20
2022-10-19T09:21:44.610Z,45.02
2022-10-19T09:24:44.126Z,45.00
2022-10-19T09:27:16.536Z,44.87
2022-10-19T09:29:50.066Z,44.63
2022-10-19T09:32:23.947Z,44.60
2022-10-19T09:34:55.487Z,44.88
2022-10-19T09:37:26.647Z,44.94
2022-10-19T09:39:55.344Z,44.87
2022-10-19T09:42:36.820Z,44.94
2022-10-19T09:45:16.831Z,45.04
2022-10-19T09:47:46.019Z,45.12
2022-10-19T09:50:23.176Z,44.93
2022-10-19T09:52:58.233Z,45.00
2022-10-19T09:55:37.171Z,44.99
2022-10-19T09:58:30.469Z,44.73
2022-10-19T10:01:02.600Z,44.88
2022-10-19T10:03:36.541Z,44.90
2022-10-19T10:06:07.853Z,44.92
2022-10-19T10:08:41.295Z,45.00
2022-10-19T10:11:24.118Z,45.09
2022-10-19T10:13:54.316Z,45.09
2022-10-19T10:16:23.159Z,45.12
2022-10-19T10:19:04.972Z,44.81
2022-10-19T10:21:34.871Z,45.12
2022-10-19T10:24:16.837Z,44.99
2022-10-19T10:26:51.302Z,44.90
2022-10-19T10:29:21.942Z,45.11
2022-10-19T10:32:00.719Z,44.84
2022-10-19T10:34:45.461Z,44.90
2022-10-19T10:37:55.321Z,45.21
2022-10-19T10:40:30.011Z,45.06
2022-10-19T10:42:58.048Z,45.12
2022-10-19T10:45:51.641Z,45.10
2022-10-19T10:48:29.117Z,45.19
2022-10-19T10:50:56.415Z,45.20
2022-10-19T10:53:39.718Z,45.16
2022-10-19T10:56:16.357Z,45.34
2022-10-19T10:58:51.687Z,45.16
2022-10-19T11:01:26.577Z,45.11
2022-10-19T11:04:00.667Z,45.17
2022-10-19T11:06:29.764Z,45.35
2022-10-19T11:09:07.595Z,45.41
2022-10-19T11:11:41.347Z,45.32
2022-10-19T11:14:47.260Z,45.33
2022-10-19T11:17:28.546Z,45.51
2022-10-19T11:19:55.284Z,45.54
2022-10-19T11:22:56.971Z,45.41
2022-10-19T11:25:30.007Z,45.46
2022-10-19T11:28:28.748Z,45.44
2022-10-19T11:31:13.574Z,45.50
2022-10-19T11:34:32.543Z,45.74
2022-10-19T11:37:07.359Z,45.58
2022-10-19T11:40:04.815Z,45.57
2022-10-19T11:43:12.373Z,45.90
2022-10-19T11:46:02.006Z,45.71
2022-10-19T11:49:03.673Z,45.83
2022-10-19T11:51:44.666Z,45.62
2022-10-19T11:54:20.640Z,45.73
2022-10-19T11:57:04.011Z,46.11
2022-10-19T12:00:38.582Z,45.77
2022-10-19T12:03:33.198Z,45.86
2022-10-19T12:06:26.862Z,45.76
2022-10-19T12:09:31.680Z,46.09
2022-10-19T12:12:19.776Z,45.87
2022-10-19T12:14:48.319Z,45.99
2022-10-19T12:17:20.405Z,46.08
2022-10-19T12:19:49.224Z,45.80
2022-10-19T12:22:19.011Z,45.89
2022-10-19T12:24:45.502Z,46.07
2022-10-19T12:27:17.080Z,46.01
2022-10-19T12:29:47.912Z,45.83
2022-10-19T12:32:15.733Z,45.64
2022-10-19T12:35:03.156Z,45.90
2022-10-19T12:37:39.682Z,45.73
2022-10-19T12:40:20.057Z,45.68
2022-10-19T12:42:52.032Z,45.91
2022-10-19T12:45:47.830Z,45.92
2022-10-19T12:48:20.340Z,45.93
2022-10-19T12:50:50.006Z,46.07
2022-10-19T12:53:38.674Z,46.03
2022-10-19T12:56:06.477Z,45.93
2022-10-19T12:58:54.464Z,46.07
2022-10-19T13:01:44.518Z,46.34
2022-10-19T13:04:23.923Z,46.12
2022-10-19T13:06:56.446Z,45.90
2022-10-19T13:09:24.773Z,45.90
2022-10-19T13:12:14.095Z,45.81
2022-10-19T13:15:05.410Z,46.02
2022-10-19T13:17:41.056Z,45.80
2022-10-19T13:20:14.416Z,45.76
2022-10-19T13:22:48.877Z,45.96
2022-10-19T13:25:21.447Z,45.88
2022-10-19T13:27:49.273Z,45.73
2022-10-19T13:30:46.749Z,45.82
2022-10-19T13:33:22.640Z,45.97
2022-10-19T13:35:49.513Z,46.10
2022-10-19T13:38:15.835Z,45.92
2022-10-19T13:40:48.236Z,45.81
2022-10-19T13:43:28.992Z,45.82
2022-10-19T13:46:05.987Z,45.76
2022-10-19T13:48:47.764Z,45.75
2022-10-19T13:51:21.309Z,45.61
2022-10-19T13:53:53.383Z,45.60
2022-10-19T13:56:40.737Z,45.52
2022-10-19T13:59:20.634Z,45.61
2022-10-19T14:01:53.338Z,45.71
2022-10-19T14:04:28.037Z,45.59
2022-10-19T14:07:01.006Z,45.66
2022-10-19T14:09:36.458Z,45.56
2022-10-19T14:12:24.706Z,45.67
2022-10-19T14:14:54.347Z,45.75
2022-10-19T14:17:27.286Z,45.49
2022-10-19T14:19:55.357Z,45.57
2022-10-19T14:22:35.900Z,45.57
2022-10-19T14:25:18.813Z,45.51
2022-10-19T14:27:46.329Z,45.49
2022-10-19T14:30:23.020Z,45.57
2022-10-19T14:32:49.806Z,45.55
2022-10-19T14:35:29.157Z,46.04
2022-10-19T14:37:55.746Z,45.57
2022-10-19T14:40:27.921Z,45.63
2022-10-19T14:42:57.179Z,45.85
2022-10-19T14:45:47.191Z,45.68
2022-10-19T14:48:17.547Z,45.90
2022-10-19T14:50:43.968Z,45.66
2022-10-19T14:53:23.948Z,45.70
2022-10-19T14:55:51.648Z,46.03
2022-10-19T14:58:19.039Z,45.91
2022-10-19T15:00:45.599Z,45.94
2022-10-19T15:03:12.659Z,46.19
2022-10-19T15:05:42.462Z,45.87
2022-10-19T15:08:10.238Z,46.03
2022-10-19T15:10:45.633Z,45.71
2022-10-19T15:13:22.938Z,45.67
2022-10-19T15:15:51.000Z,45.85
2022-10-19T15:18:43.521Z,45.74
2022-10-19T15:21:14.559Z,45.68
2022-10-19T15:23:43.072Z,45.79
2022-10-19T15:26:18.582Z,45.83
2022-10-19T15:28:45.163Z,46.10
2022-10-19T15:31:25.510Z,46.00
2022-10-19T15:34:00.951Z,45.77
2022-10-19T15:36:28.160Z,45.84
2022-10-19T15:39:06.090Z,45.80
2022-10-19T15:41:43.968Z,45.96
2022-10-19T15:44:49.533Z,46.16
2022-10-19T15:47:15.938Z,46.24
2022-10-19T15:49:42.337Z,46.06
2022-10-19T15:52:25.196Z,46.34
2022-10-19T15:54:55.853Z,46.33
2022-10-19T15:57:33.707Z,46.10
2022-10-19T16:00:21.654Z,46.63
2022-10-19T16:02:48.132Z,46.53
2022-10-19T16:05:14.599Z,46.46
2022-10-19T16:07:41.176Z,46.58
2022-10-19T16:10:11.011Z,46.46
2022-10-19T16:12:37.599Z,46.13
2022-10-19T16:15:04.357Z,46.13
2022-10-19T16:17:30.855Z,46.26
2022-10-19T16:19:57.346Z,46.28
2022-10-19T16:22:23.830Z,46.58
2022-10-19T16:24:50.318Z,46.52
2022-10-19T16:27:17.003Z,46.88
2022-10-19T16:29:44.456Z,46.82
2022-10-19T16:32:10.914Z,47.27
2022-10-19T16:34:37.991Z,46.26
2022-10-19T16:37:06.802Z,47.07
2022-10-19T16:39:33.939Z,46.49
2022-10-19T16:42:00.408Z,45.79
2022-10-19T16:44:26.954Z,45.13
2022-10-19T16:46:55.460Z,44.63
2022-10-19T16:49:21.943Z,44.48
2022-10-19T16:51:49.987Z,44.51
2022-10-19T16:54:18.845Z,44.00
2022-10-19T16:56:46.099Z,44.41
2022-10-19T16:59:14.636Z,44.57
2022-10-19T17:01:41.318Z,44.49
2022-10-19T17:04:07.828Z,45.01
2022-10-19T17:06:34.320Z,45.00
2022-10-19T17:11:47.281Z,44.71
2022-10-19T17:14:13.829Z,44.78
2022-10-19T17:16:40.324Z,44.69
2022-10-19T17:19:07.223Z,44.47
2022-10-19T17:21:37.837Z,44.92
2022-10-19T17:24:05.774Z,44.51
2022-10-19T17:26:34.300Z,44.58
2022-10-19T17:29:00.861Z,44.21
2022-10-19T17:31:27.743Z,44.55
2022-10-19T17:33:54.282Z,44.64
2022-10-19T17:36:22.650Z,44.59
2022-10-19T17:38:49.168Z,44.46
2022-10-19T17:41:17.064Z,44.21
2022-10-19T17:43:44.696Z,44.29
2022-10-19T17:46:12.676Z,44.16
2022-10-19T17:48:39.676Z,43.68
2022-10-19T17:51:07.876Z,43.91
2022-10-19T17:53:34.889Z,44.30
2022-10-19T17:56:02.487Z,44.46
2022-10-19T17:58:30.479Z,44.08
2022-10-19T18:00:57.553Z,44.71
2022-10-19T18:03:24.768Z,45.18
2022-10-19T18:06:02.926Z,45.24
2022-10-19T18:08:32.159Z,45.14
2022-10-19T18:11:18.551Z,45.03
2022-10-19T18:13:45.082Z,44.99
2022-10-19T18:16:16.788Z,44.97
2022-10-19T18:18:45.859Z,45.40
2022-10-19T18:21:13.387Z,45.10
2022-10-19T18:23:40.211Z,45.20
2022-10-19T18:26:08.562Z,45.28
2022-10-19T18:28:35.103Z,44.97
2022-10-19T18:31:11.106Z,44.88
2022-10-19T18:33:38.113Z,44.98
2022-10-19T18:36:05.670Z,45.13
2022-10-19T18:38:32.125Z,45.14
2022-10-19T18:41:07.411Z,44.98
2022-10-19T18:43:34.742Z,44.88
2022-10-19T18:46:01.728Z,45.07
2022-10-19T18:48:30.142Z,45.03
2022-10-19T18:50:57.235Z,45.23
2022-10-19T18:53:24.100Z,45.12
2022-10-19T18:56:01.300Z,45.43
2022-10-19T18:58:30.354Z,45.10
2022-10-19T19:01:16.807Z,45.44
2022-10-19T19:03:44.848Z,45.15
2022-10-19T19:06:13.047Z,45.58
2022-10-19T19:08:39.795Z,45.46
2022-10-19T19:11:16.835Z,45.40
2022-10-19T19:13:50.723Z,45.40
2022-10-19T19:16:17.363Z,45.41
2022-10-19T19:18:44.039Z,45.76
2022-10-19T19:21:17.974Z,45.50
2022-10-19T19:23:44.525Z,45.62
2022-10-19T19:26:11.160Z,45.76
2022-10-19T19:28:41.456Z,45.43
2022-10-19T19:31:09.204Z,45.97
2022-10-19T19:33:35.700Z,45.90
2022-10-19T19:36:05.059Z,45.92
2022-10-19T19:38:31.743Z,46.32
2022-10-19T19:40:58.198Z,45.48
2022-10-19T19:43:24.650Z,44.91
2022-10-19T19:46:03.334Z,46.06
2022-10-19T19:48:32.911Z,45.66
2022-10-19T19:50:59.361Z,45.85
2022-10-19T19:53:25.822Z,46.37
2022-10-19T19:55:52.280Z,45.85
2022-10-19T19:58:18.949Z,45.53
2022-10-19T20:00:47.512Z,45.47
2022-10-19T20:03:14.146Z,45.54
2022-10-19T20:05:40.786Z,46.06
2022-10-19T20:08:07.619Z,45.81
2022-10-19T20:10:37.841Z,45.48
2022-10-19T20:15:38.838Z,45.95
2022-10-19T20:18:05.862Z,45.92
2022-10-19T20:20:32.321Z,45.80
2022-10-19T20:22:58.855Z,46.29
2022-10-19T20:25:25.323Z,46.20
2022-10-19T20:27:51.790Z,46.06
2022-10-19T20:30:18.347Z,45.94
2022-10-19T20:32:44.799Z,45.85
2022-10-19T20:35:11.275Z,45.59
2022-10-19T20:37:37.777Z,45.97
2022-10-19T20:40:08.524Z,45.33
2022-10-19T20:42:35.636Z,45.43
2022-10-19T20:45:02.396Z,45.21
2022-10-19T20:47:28.915Z,45.09
2022-10-19T20:49:55.410Z,44.89
2022-10-19T20:52:21.880Z,45.09
2022-10-19T20:54:48.631Z,45.60
2022-10-19T20:57:15.122Z,45.08
2022-10-19T20:59:42.863Z,45.43
2022-10-19T21:02:09.375Z,44.70
2022-10-19T21:04:35.926Z,44.56
2022-10-19T21:07:04.336Z,44.31
2022-10-19T21:09:30.887Z,44.75
2022-10-19T21:11:57.339Z,44.76
2022-10-19T21:14:27.992Z,45.25
2022-10-19T21:16:56.839Z,44.43
2022-10-19T21:19:25.227Z,45.23
2022-10-19T21:21:55.260Z,44.70
2022-10-19T21:24:23.695Z,44.80
2022-10-19T21:26:53.103Z,44.81
2022-10-19T21:29:19.639Z,45.34
2022-10-19T21:31:48.941Z,45.50
2022-10-19T21:34:25.992Z,44.95
2022-10-19T21:36:52.540Z,44.87
2022-10-19T21:39:19.174Z,44.64
2022-10-19T21:41:45.745Z,45.42
2022-10-19T21:44:12.225Z,44.90
2022-10-19T21:46:38.694Z,44.99
2022-10-19T21:49:05.161Z,44.69
2022-10-19T21:51:40.569Z,45.28
2022-10-19T21:54:07.933Z,44.34
2022-10-19T21:56:34.440Z,45.17
2022-10-19T21:59:00.938Z,44.81
2022-10-19T22:01:28.246Z,44.43
2022-10-19T22:03:58.259Z,44.75
2022-10-19T22:06:25.810Z,45.00
2022-10-19T22:08:52.369Z,45.28
2022-10-19T22:11:18.863Z,45.52
2022-10-19T22:13:45.346Z,44.77
2022-10-19T22:16:19.053Z,44.34
2022-10-19T22:18:45.985Z,44.23
2022-10-19T22:21:17.428Z,44.35
2022-10-19T22:23:44.876Z,44.53
2022-10-19T22:26:19.675Z,44.60
2022-10-19T22:28:46.215Z,44.30
2022-10-19T22:31:12.743Z,44.48
2022-10-19T22:33:39.300Z,44.34
2022-10-19T22:36:07.211Z,44.43
2022-10-19T22:38:34.272Z,44.24
2022-10-19T22:41:00.731Z,44.50
2022-10-19T22:43:27.203Z,44.31
2022-10-19T22:45:53.714Z,44.35
2022-10-19T22:48:20.278Z,44.14
2022-10-19T22:50:46.798Z,43.99
2022-10-19T22:53:13.284Z,44.08
2022-10-19T22:55:39.847Z,44.36
2022-10-19T22:58:07.406Z,44.28
2022-10-19T23:00:33.912Z,44.27
2022-10-19T23:03:00.394Z,43.94
2022-10-19T23:05:26.874Z,44.39
2022-10-19T23:07:53.333Z,43.84
2022-10-19T23:10:19.851Z,44.00
2022-10-19T23:12:52.514Z,44.01
2022-10-19T23:15:19.672Z,44.05
2022-10-19T23:17:46.124Z,43.80
2022-10-19T23:20:12.876Z,43.92
2022-10-19T23:22:39.675Z,44.13
2022-10-19T23:25:06.657Z,43.87
2022-10-19T23:27:33.349Z,43.67
2022-10-19T23:30:00.355Z,43.81
2022-10-19T23:32:26.804Z,43.53
2022-10-19T23:34:53.268Z,43.74
2022-10-19T23:37:19.746Z,43.89
2022-10-19T23:39:46.202Z,43.63
2022-10-19T23:42:12.652Z,43.90
2022-10-19T23:44:39.114Z,43.86
2022-10-19T23:47:05.589Z,43.51
2022-10-19T23:49:32.040Z,43.66
2022-10-19T23:51:58.486Z,43.80
2022-10-19T23:54:25.037Z,43.26
2022-10-19T23:56:51.496Z,43.56
2022-10-19T23:59:17.960Z,43.41
